Pine View, North Carolina
Current Conditions -  °F | °C
As of 2:55 PM on Saturday 25 Oct 2014 (Local Time) from KTTA Reporting Station
Clear Clear  
Wind Chill: 71°   Ceiling: Unl
Heat Index: 71°   Visibility: 10mi
Dew Point: 41°   Wind: 0mph
Humidity: 34%   Direction: NA
Pressure: 29.93"   Gusts: NA
Location:  35.493°N, 79.1765°W
Report Text: KTTA 251855Z AUTO 00000KT 10SM CLR 21/05 A2993 RMK AO2 T02140051
Loading
Personal Weather Stations






























Interactive Weather Map
Tropical Storm Tracking
New forecast layout! Learn more

10-Day Weather Forecast

Advertisements
Track Severe Weather on mobile